BAW809 LEMD-EGLL
Flight info
| Callsign | BAW809 |
|---|---|
| Flight time | 1h 36m |
| Altitude | 34000 |
| Route | SIE N858 DGO N867 NENEM DCT DIDIG UP87 ROXOG |
| Aircraft | B772/H-SDE2E3FGHIJ5LORVWXY/LB1D1 |
Departure
| Time | 2026-05-07 09:06 |
|---|---|
| Airport | Adolfo Suárez Madrid–Barajas Airport (LEMD) |
Arrival
| Time | 2026-05-07 10:42 |
|---|---|
| Airport | London Heathrow Airport (EGLL) |
| Time | Latitude | Longitude | Altitude | Speed | Heading |
|---|---|---|---|---|---|
| 2026-05-07 08:33 | 40.49668 | -3.56869 | 1962 ft | 0 kts | 90° |
| 2026-05-07 08:55 | 40.49668 | -3.56877 | 1962 ft | 2 kts | 90° |
| 2026-05-07 08:55 | 40.49668 | -3.56897 | 1963 ft | 2 kts | 89° |
| 2026-05-07 08:56 | 40.49668 | -3.56917 | 1965 ft | 2 kts | 89° |
| 2026-05-07 08:56 | 40.49668 | -3.56923 | 1965 ft | 0 kts | 90° |
| 2026-05-07 08:56 | 40.49668 | -3.56922 | 1965 ft | 0 kts | 90° |
| 2026-05-07 08:56 | 40.49668 | -3.56921 | 1965 ft | 0 kts | 90° |
| 2026-05-07 08:57 | 40.49668 | -3.56935 | 1966 ft | 2 kts | 89° |
| 2026-05-07 08:57 | 40.49668 | -3.56955 | 1967 ft | 2 kts | 94° |
| 2026-05-07 08:57 | 40.49672 | -3.56974 | 1968 ft | 2 kts | 117° |
| 2026-05-07 08:57 | 40.49680 | -3.56990 | 1969 ft | 2 kts | 135° |
| 2026-05-07 08:58 | 40.49692 | -3.57002 | 1969 ft | 2 kts | 154° |
| 2026-05-07 08:58 | 40.49707 | -3.57008 | 1969 ft | 2 kts | 173° |
| 2026-05-07 08:58 | 40.49722 | -3.57009 | 1969 ft | 2 kts | 182° |
| 2026-05-07 08:58 | 40.49737 | -3.57008 | 1969 ft | 2 kts | 179° |
| 2026-05-07 08:59 | 40.49752 | -3.57008 | 1968 ft | 2 kts | 178° |
| 2026-05-07 08:59 | 40.49767 | -3.57009 | 1968 ft | 2 kts | 179° |
| 2026-05-07 08:59 | 40.49778 | -3.57009 | 1968 ft | 0 kts | 179° |
| 2026-05-07 09:01 | 40.49777 | -3.57008 | 1968 ft | 0 kts | 179° |
| 2026-05-07 09:01 | 40.49752 | -3.57022 | 1969 ft | 6 kts | 231° |
| 2026-05-07 09:02 | 40.49737 | -3.57106 | 1974 ft | 11 kts | 238° |
| 2026-05-07 09:02 | 40.49631 | -3.57123 | 1977 ft | 19 kts | 180° |
| 2026-05-07 09:02 | 40.49498 | -3.57122 | 1980 ft | 18 kts | 179° |
| 2026-05-07 09:02 | 40.49381 | -3.57121 | 1983 ft | 15 kts | 180° |
| 2026-05-07 09:03 | 40.49278 | -3.57120 | 1985 ft | 14 kts | 179° |
| 2026-05-07 09:03 | 40.49195 | -3.57147 | 1988 ft | 11 kts | 235° |
| 2026-05-07 09:03 | 40.49183 | -3.57233 | 1990 ft | 9 kts | 269° |
| 2026-05-07 09:03 | 40.49182 | -3.57326 | 1992 ft | 10 kts | 269° |
| 2026-05-07 09:04 | 40.49186 | -3.57426 | 1996 ft | 10 kts | 291° |
| 2026-05-07 09:04 | 40.49258 | -3.57462 | 1996 ft | 13 kts | 358° |
| 2026-05-07 09:04 | 40.49356 | -3.57464 | 1995 ft | 14 kts | 359° |
| 2026-05-07 09:04 | 40.49482 | -3.57465 | 1995 ft | 32 kts | 360° |
| 2026-05-07 09:05 | 40.49943 | -3.57466 | 1994 ft | 98 kts | 0° |
| 2026-05-07 09:05 | 40.50833 | -3.57470 | 1995 ft | 152 kts | 359° |
| 2026-05-07 09:05 | 40.52033 | -3.57470 | 2078 ft | 187 kts | 1° |
| 2026-05-07 09:05 | 40.53347 | -3.57471 | 2597 ft | 188 kts | 1° |
| 2026-05-07 09:06 | 40.54643 | -3.57506 | 3299 ft | 184 kts | 0° |
| 2026-05-07 09:06 | 40.55946 | -3.57782 | 3469 ft | 202 kts | 338° |
| 2026-05-07 09:06 | 40.57147 | -3.58894 | 3561 ft | 222 kts | 310° |
| 2026-05-07 09:06 | 40.57996 | -3.60635 | 4057 ft | 227 kts | 306° |
| 2026-05-07 09:07 | 40.59018 | -3.62180 | 4634 ft | 229 kts | 316° |
| 2026-05-07 09:07 | 40.60213 | -3.63617 | 5190 ft | 232 kts | 319° |
| 2026-05-07 09:07 | 40.61446 | -3.65005 | 5774 ft | 234 kts | 319° |
| 2026-05-07 09:07 | 40.62693 | -3.66385 | 6329 ft | 236 kts | 320° |
| 2026-05-07 09:08 | 40.64112 | -3.67452 | 6812 ft | 240 kts | 345° |
| 2026-05-07 09:08 | 40.65800 | -3.67634 | 7114 ft | 253 kts | 4° |
| 2026-05-07 09:08 | 40.67620 | -3.67393 | 7339 ft | 271 kts | 7° |
| 2026-05-07 09:08 | 40.69537 | -3.67098 | 7726 ft | 282 kts | 7° |
| 2026-05-07 09:09 | 40.71516 | -3.66804 | 8242 ft | 289 kts | 6° |
| 2026-05-07 09:09 | 40.73524 | -3.66513 | 8782 ft | 293 kts | 6° |
| 2026-05-07 09:09 | 40.75545 | -3.66221 | 9368 ft | 295 kts | 6° |
| 2026-05-07 09:09 | 40.77610 | -3.65923 | 9908 ft | 298 kts | 6° |
| 2026-05-07 09:10 | 40.79678 | -3.65624 | 10278 ft | 308 kts | 6° |
| 2026-05-07 09:10 | 40.81866 | -3.65307 | 10484 ft | 324 kts | 6° |
| 2026-05-07 09:10 | 40.84158 | -3.64976 | 10697 ft | 340 kts | 6° |
| 2026-05-07 09:10 | 40.86572 | -3.64626 | 10922 ft | 355 kts | 6° |
| 2026-05-07 09:11 | 40.89068 | -3.64265 | 11185 ft | 370 kts | 6° |
| 2026-05-07 09:11 | 40.91686 | -3.63885 | 11500 ft | 384 kts | 6° |
| 2026-05-07 09:11 | 40.94383 | -3.63494 | 12092 ft | 390 kts | 6° |
| 2026-05-07 09:11 | 40.97086 | -3.63102 | 12741 ft | 394 kts | 6° |
| 2026-05-07 09:12 | 40.99846 | -3.62700 | 13435 ft | 398 kts | 6° |
| 2026-05-07 09:12 | 41.02579 | -3.62303 | 14094 ft | 402 kts | 6° |
| 2026-05-07 09:12 | 41.05392 | -3.61893 | 14783 ft | 406 kts | 6° |
| 2026-05-07 09:12 | 41.08178 | -3.61487 | 15535 ft | 409 kts | 6° |
| 2026-05-07 09:13 | 41.11028 | -3.61071 | 16226 ft | 413 kts | 6° |
| 2026-05-07 09:13 | 41.13900 | -3.60652 | 16836 ft | 419 kts | 6° |
| 2026-05-07 09:13 | 41.16799 | -3.60186 | 17477 ft | 424 kts | 9° |
| 2026-05-07 09:13 | 41.19650 | -3.59185 | 18116 ft | 428 kts | 20° |
| 2026-05-07 09:14 | 41.22382 | -3.57551 | 18776 ft | 432 kts | 27° |
| 2026-05-07 09:14 | 41.25119 | -3.55765 | 19423 ft | 437 kts | 26° |
| 2026-05-07 09:14 | 41.27892 | -3.54035 | 20150 ft | 439 kts | 25° |
| 2026-05-07 09:14 | 41.30693 | -3.52353 | 20825 ft | 443 kts | 24° |
| 2026-05-07 09:15 | 41.33545 | -3.50688 | 21425 ft | 448 kts | 24° |
| 2026-05-07 09:15 | 41.36408 | -3.49050 | 22061 ft | 452 kts | 24° |
| 2026-05-07 09:15 | 41.39302 | -3.47413 | 22687 ft | 455 kts | 23° |
| 2026-05-07 09:15 | 41.42236 | -3.45768 | 23251 ft | 460 kts | 23° |
| 2026-05-07 09:16 | 41.45187 | -3.44122 | 23817 ft | 465 kts | 23° |
| 2026-05-07 09:16 | 41.48172 | -3.42463 | 24385 ft | 469 kts | 23° |
| 2026-05-07 09:16 | 41.51204 | -3.40781 | 24912 ft | 473 kts | 23° |
| 2026-05-07 09:16 | 41.54257 | -3.39090 | 25363 ft | 479 kts | 22° |
| 2026-05-07 09:17 | 41.57334 | -3.37386 | 25834 ft | 484 kts | 22° |
| 2026-05-07 09:17 | 41.60453 | -3.35658 | 26379 ft | 486 kts | 22° |
| 2026-05-07 09:17 | 41.63567 | -3.33934 | 26881 ft | 490 kts | 23° |
| 2026-05-07 09:17 | 41.66766 | -3.32161 | 27297 ft | 495 kts | 23° |
| 2026-05-07 09:18 | 41.69966 | -3.30386 | 27692 ft | 500 kts | 23° |
| 2026-05-07 09:18 | 41.73187 | -3.28599 | 28160 ft | 503 kts | 23° |
| 2026-05-07 09:18 | 41.76407 | -3.26811 | 28620 ft | 506 kts | 23° |
| 2026-05-07 09:18 | 41.79704 | -3.24977 | 29008 ft | 510 kts | 23° |
| 2026-05-07 09:19 | 41.82985 | -3.23151 | 29457 ft | 513 kts | 22° |
| 2026-05-07 09:19 | 41.86282 | -3.21314 | 30022 ft | 513 kts | 22° |
| 2026-05-07 09:19 | 41.89551 | -3.19491 | 30641 ft | 511 kts | 22° |
| 2026-05-07 09:19 | 41.92869 | -3.17639 | 31256 ft | 508 kts | 22° |
| 2026-05-07 09:20 | 41.96162 | -3.15798 | 31807 ft | 507 kts | 22° |
| 2026-05-07 09:20 | 41.99461 | -3.13953 | 32295 ft | 507 kts | 22° |
| 2026-05-07 09:20 | 42.02764 | -3.12102 | 32803 ft | 507 kts | 22° |
| 2026-05-07 09:20 | 42.06038 | -3.10267 | 33344 ft | 505 kts | 22° |
| 2026-05-07 09:21 | 42.09295 | -3.08438 | 33849 ft | 504 kts | 22° |
| 2026-05-07 09:21 | 42.12582 | -3.06590 | 33952 ft | 508 kts | 22° |
| 2026-05-07 09:21 | 42.19099 | -3.02921 | 33966 ft | 504 kts | 22° |
| 2026-05-07 09:22 | 42.25593 | -2.99257 | 33960 ft | 505 kts | 22° |
| 2026-05-07 09:22 | 42.32102 | -2.95576 | 33961 ft | 506 kts | 22° |
| 2026-05-07 09:23 | 42.38580 | -2.91905 | 33962 ft | 504 kts | 22° |
| 2026-05-07 09:23 | 42.45303 | -2.88818 | 33962 ft | 516 kts | 9° |
| 2026-05-07 09:24 | 42.52512 | -2.88300 | 33962 ft | 527 kts | 356° |
| 2026-05-07 09:24 | 42.59895 | -2.88738 | 33963 ft | 536 kts | 356° |
| 2026-05-07 09:25 | 42.67361 | -2.89165 | 33958 ft | 535 kts | 356° |
| 2026-05-07 09:25 | 42.74824 | -2.89576 | 33954 ft | 535 kts | 356° |
| 2026-05-07 09:26 | 42.82280 | -2.89978 | 33942 ft | 534 kts | 356° |
| 2026-05-07 09:26 | 42.89744 | -2.90377 | 33940 ft | 534 kts | 356° |
| 2026-05-07 09:27 | 42.97187 | -2.90772 | 33936 ft | 534 kts | 356° |
| 2026-05-07 09:28 | 43.08352 | -2.91364 | 33941 ft | 534 kts | 356° |
| 2026-05-07 09:28 | 43.15796 | -2.91759 | 33937 ft | 534 kts | 356° |
| 2026-05-07 09:29 | 43.23251 | -2.92155 | 33943 ft | 534 kts | 356° |
| 2026-05-07 09:29 | 43.30648 | -2.92752 | 33947 ft | 533 kts | 349° |
| 2026-05-07 09:30 | 43.37918 | -2.94851 | 33953 ft | 532 kts | 345° |
| 2026-05-07 09:30 | 43.45096 | -2.97098 | 33952 ft | 531 kts | 345° |
| 2026-05-07 09:31 | 43.52317 | -2.99361 | 33961 ft | 530 kts | 345° |
| 2026-05-07 09:31 | 43.59517 | -3.01620 | 33957 ft | 530 kts | 345° |
| 2026-05-07 09:32 | 43.66656 | -3.03865 | 33962 ft | 530 kts | 345° |
| 2026-05-07 09:32 | 43.73915 | -3.06039 | 33961 ft | 530 kts | 346° |
| 2026-05-07 09:33 | 43.81137 | -3.08102 | 33962 ft | 531 kts | 346° |
| 2026-05-07 09:33 | 43.88376 | -3.10182 | 33969 ft | 532 kts | 346° |
| 2026-05-07 09:34 | 43.95630 | -3.12276 | 33968 ft | 532 kts | 346° |
| 2026-05-07 09:34 | 44.02933 | -3.13847 | 33967 ft | 534 kts | 356° |
| 2026-05-07 09:35 | 44.10311 | -3.12746 | 33964 ft | 536 kts | 13° |
| 2026-05-07 09:35 | 44.17486 | -3.09715 | 33956 ft | 536 kts | 17° |
| 2026-05-07 09:36 | 44.24585 | -3.06594 | 33955 ft | 536 kts | 17° |
| 2026-05-07 09:36 | 44.31711 | -3.03463 | 33961 ft | 535 kts | 17° |
| 2026-05-07 09:37 | 44.38816 | -3.00339 | 33974 ft | 536 kts | 17° |
| 2026-05-07 09:37 | 44.45943 | -2.97201 | 33972 ft | 535 kts | 17° |
| 2026-05-07 09:38 | 44.53066 | -2.94059 | 33977 ft | 534 kts | 17° |
| 2026-05-07 09:38 | 44.60110 | -2.90944 | 33980 ft | 534 kts | 17° |
| 2026-05-07 09:39 | 44.67274 | -2.87769 | 33986 ft | 534 kts | 17° |
| 2026-05-07 09:39 | 44.74362 | -2.84620 | 33988 ft | 533 kts | 17° |
| 2026-05-07 09:40 | 44.81434 | -2.81470 | 33990 ft | 532 kts | 17° |
| 2026-05-07 09:40 | 44.88493 | -2.78319 | 33991 ft | 532 kts | 17° |
| 2026-05-07 09:41 | 44.95555 | -2.75156 | 34004 ft | 531 kts | 17° |
| 2026-05-07 09:41 | 45.02588 | -2.71998 | 34009 ft | 531 kts | 17° |
| 2026-05-07 09:42 | 45.09674 | -2.68811 | 34005 ft | 531 kts | 17° |
| 2026-05-07 09:42 | 45.16707 | -2.65639 | 34008 ft | 531 kts | 17° |
| 2026-05-07 09:43 | 45.23777 | -2.62441 | 34015 ft | 530 kts | 17° |
| 2026-05-07 09:43 | 45.30747 | -2.59280 | 34012 ft | 530 kts | 17° |
| 2026-05-07 09:44 | 45.37744 | -2.56099 | 34011 ft | 528 kts | 17° |
| 2026-05-07 09:44 | 45.44752 | -2.52904 | 34008 ft | 528 kts | 17° |
| 2026-05-07 09:45 | 45.51754 | -2.49704 | 34008 ft | 528 kts | 17° |
| 2026-05-07 09:45 | 45.58742 | -2.46502 | 34009 ft | 526 kts | 17° |
| 2026-05-07 09:46 | 45.65687 | -2.43311 | 34011 ft | 527 kts | 17° |
| 2026-05-07 09:46 | 45.72656 | -2.40101 | 34015 ft | 525 kts | 17° |
| 2026-05-07 09:47 | 45.79583 | -2.36902 | 34019 ft | 525 kts | 17° |
| 2026-05-07 09:47 | 45.86542 | -2.33679 | 34009 ft | 523 kts | 17° |
| 2026-05-07 09:48 | 45.93464 | -2.30465 | 34013 ft | 523 kts | 17° |
| 2026-05-07 09:48 | 46.00353 | -2.27259 | 34019 ft | 523 kts | 17° |
| 2026-05-07 09:49 | 46.07373 | -2.24444 | 34019 ft | 521 kts | 9° |
| 2026-05-07 09:49 | 46.14516 | -2.22696 | 34010 ft | 520 kts | 8° |
| 2026-05-07 09:50 | 46.21664 | -2.20968 | 34007 ft | 520 kts | 8° |
| 2026-05-07 09:50 | 46.28760 | -2.19241 | 33995 ft | 520 kts | 8° |
| 2026-05-07 09:51 | 46.35932 | -2.17486 | 33993 ft | 520 kts | 8° |
| 2026-05-07 09:51 | 46.43031 | -2.15743 | 33994 ft | 520 kts | 8° |
| 2026-05-07 09:52 | 46.50192 | -2.13978 | 33994 ft | 519 kts | 8° |
| 2026-05-07 09:52 | 46.57304 | -2.12220 | 33994 ft | 519 kts | 8° |
| 2026-05-07 09:53 | 46.64451 | -2.10448 | 33995 ft | 518 kts | 8° |
| 2026-05-07 09:53 | 46.71508 | -2.08694 | 33996 ft | 518 kts | 8° |
| 2026-05-07 09:54 | 46.78672 | -2.06909 | 33999 ft | 518 kts | 8° |
| 2026-05-07 09:54 | 46.85810 | -2.05125 | 33996 ft | 517 kts | 8° |
| 2026-05-07 09:55 | 46.92935 | -2.03339 | 33992 ft | 518 kts | 8° |
| 2026-05-07 09:55 | 47.00050 | -2.01551 | 34000 ft | 517 kts | 8° |
| 2026-05-07 09:56 | 47.07126 | -1.99793 | 33999 ft | 516 kts | 8° |
| 2026-05-07 09:56 | 47.14195 | -1.98043 | 33996 ft | 515 kts | 8° |
| 2026-05-07 09:57 | 47.21292 | -1.96280 | 33996 ft | 515 kts | 8° |
| 2026-05-07 09:57 | 47.28375 | -1.94516 | 34005 ft | 516 kts | 8° |
| 2026-05-07 09:58 | 47.35484 | -1.93138 | 34003 ft | 515 kts | 360° |
| 2026-05-07 09:58 | 47.42651 | -1.93690 | 34006 ft | 514 kts | 354° |
| 2026-05-07 09:59 | 47.49795 | -1.94455 | 34010 ft | 513 kts | 354° |
| 2026-05-07 09:59 | 47.56946 | -1.95221 | 34006 ft | 513 kts | 354° |
| 2026-05-07 10:00 | 47.64077 | -1.95267 | 34007 ft | 514 kts | 7° |
| 2026-05-07 10:00 | 47.71008 | -1.92555 | 34014 ft | 516 kts | 18° |
| 2026-05-07 10:01 | 47.77789 | -1.89106 | 34015 ft | 516 kts | 18° |
| 2026-05-07 10:01 | 47.84580 | -1.85637 | 34012 ft | 516 kts | 18° |
| 2026-05-07 10:02 | 47.91345 | -1.82173 | 34019 ft | 516 kts | 18° |
| 2026-05-07 10:02 | 47.98126 | -1.78694 | 34024 ft | 516 kts | 18° |
| 2026-05-07 10:03 | 48.04963 | -1.75333 | 34028 ft | 514 kts | 12° |
| 2026-05-07 10:03 | 48.12008 | -1.74251 | 34041 ft | 511 kts | 359° |
| 2026-05-07 10:04 | 48.19128 | -1.74316 | 34030 ft | 511 kts | 358° |
| 2026-05-07 10:04 | 48.26238 | -1.74402 | 34030 ft | 512 kts | 358° |
| 2026-05-07 10:05 | 48.33398 | -1.74489 | 34031 ft | 512 kts | 358° |
| 2026-05-07 10:05 | 48.40494 | -1.74575 | 34029 ft | 512 kts | 358° |
| 2026-05-07 10:06 | 48.47664 | -1.74662 | 34032 ft | 512 kts | 358° |
| 2026-05-07 10:06 | 48.54776 | -1.74749 | 34031 ft | 511 kts | 358° |
| 2026-05-07 10:07 | 48.61933 | -1.74836 | 34035 ft | 511 kts | 358° |
| 2026-05-07 10:07 | 48.69054 | -1.74924 | 34033 ft | 510 kts | 358° |
| 2026-05-07 10:08 | 48.76157 | -1.75011 | 34029 ft | 511 kts | 358° |
| 2026-05-07 10:08 | 48.83222 | -1.75098 | 34031 ft | 511 kts | 358° |
| 2026-05-07 10:09 | 48.90367 | -1.75187 | 34032 ft | 512 kts | 358° |
| 2026-05-07 10:09 | 48.97454 | -1.75021 | 34033 ft | 512 kts | 0° |
| 2026-05-07 10:10 | 49.04629 | -1.74716 | 34038 ft | 511 kts | 0° |
| 2026-05-07 10:10 | 49.11709 | -1.74429 | 34041 ft | 510 kts | 360° |
| 2026-05-07 10:11 | 49.18817 | -1.74147 | 34040 ft | 510 kts | 360° |
| 2026-05-07 10:11 | 49.25923 | -1.73870 | 34042 ft | 510 kts | 360° |
| 2026-05-07 10:12 | 49.33033 | -1.73593 | 34038 ft | 510 kts | 360° |
| 2026-05-07 10:12 | 49.40142 | -1.73317 | 34041 ft | 510 kts | 360° |
| 2026-05-07 10:13 | 49.47234 | -1.73042 | 34043 ft | 510 kts | 360° |
| 2026-05-07 10:13 | 49.54324 | -1.72766 | 34046 ft | 510 kts | 360° |
| 2026-05-07 10:14 | 49.61422 | -1.72471 | 34045 ft | 510 kts | 1° |
| 2026-05-07 10:14 | 49.68452 | -1.71873 | 34053 ft | 510 kts | 1° |
| 2026-05-07 10:15 | 49.75567 | -1.71251 | 34052 ft | 510 kts | 1° |
| 2026-05-07 10:15 | 49.82623 | -1.70642 | 34053 ft | 509 kts | 1° |
| 2026-05-07 10:16 | 49.89712 | -1.70034 | 34054 ft | 509 kts | 1° |
| 2026-05-07 10:16 | 49.96627 | -1.69441 | 33611 ft | 494 kts | 1° |
| 2026-05-07 10:16 | 50.00055 | -1.68859 | 32538 ft | 502 kts | 9° |
| 2026-05-07 10:17 | 50.03455 | -1.67516 | 31426 ft | 507 kts | 15° |
| 2026-05-07 10:17 | 50.06804 | -1.65907 | 30551 ft | 507 kts | 15° |
| 2026-05-07 10:17 | 50.10121 | -1.64290 | 30016 ft | 494 kts | 16° |
| 2026-05-07 10:17 | 50.13372 | -1.62703 | 29549 ft | 475 kts | 15° |
| 2026-05-07 10:18 | 50.16483 | -1.61185 | 29185 ft | 466 kts | 15° |
| 2026-05-07 10:18 | 50.19530 | -1.59699 | 28583 ft | 463 kts | 15° |
| 2026-05-07 10:18 | 50.22605 | -1.58199 | 28022 ft | 459 kts | 15° |
| 2026-05-07 10:18 | 50.25644 | -1.56714 | 27498 ft | 455 kts | 15° |
| 2026-05-07 10:19 | 50.28650 | -1.55245 | 26985 ft | 451 kts | 15° |
| 2026-05-07 10:19 | 50.31624 | -1.53790 | 26475 ft | 447 kts | 15° |
| 2026-05-07 10:19 | 50.34560 | -1.52352 | 25972 ft | 443 kts | 16° |
| 2026-05-07 10:19 | 50.37479 | -1.50921 | 25472 ft | 439 kts | 16° |
| 2026-05-07 10:20 | 50.40389 | -1.49492 | 24970 ft | 436 kts | 16° |
| 2026-05-07 10:20 | 50.43270 | -1.48076 | 24476 ft | 432 kts | 16° |
| 2026-05-07 10:20 | 50.46100 | -1.46684 | 23995 ft | 428 kts | 16° |
| 2026-05-07 10:20 | 50.48945 | -1.45282 | 23505 ft | 424 kts | 16° |
| 2026-05-07 10:21 | 50.51722 | -1.43912 | 23019 ft | 421 kts | 16° |
| 2026-05-07 10:21 | 50.54452 | -1.42252 | 22529 ft | 418 kts | 25° |
| 2026-05-07 10:21 | 50.56986 | -1.40153 | 22049 ft | 415 kts | 27° |
| 2026-05-07 10:21 | 50.59513 | -1.37984 | 21554 ft | 412 kts | 28° |
| 2026-05-07 10:22 | 50.61893 | -1.35452 | 20972 ft | 412 kts | 37° |
| 2026-05-07 10:22 | 50.64094 | -1.32631 | 20341 ft | 413 kts | 39° |
| 2026-05-07 10:22 | 50.66321 | -1.29738 | 19818 ft | 410 kts | 39° |
| 2026-05-07 10:22 | 50.68507 | -1.26895 | 19383 ft | 406 kts | 39° |
| 2026-05-07 10:23 | 50.70679 | -1.24065 | 18922 ft | 402 kts | 39° |
| 2026-05-07 10:23 | 50.72840 | -1.21246 | 18433 ft | 399 kts | 39° |
| 2026-05-07 10:23 | 50.74974 | -1.18459 | 17960 ft | 396 kts | 40° |
| 2026-05-07 10:23 | 50.77092 | -1.15691 | 17482 ft | 393 kts | 40° |
| 2026-05-07 10:24 | 50.79182 | -1.12954 | 17029 ft | 390 kts | 40° |
| 2026-05-07 10:24 | 50.81242 | -1.10255 | 16588 ft | 387 kts | 40° |
| 2026-05-07 10:24 | 50.83309 | -1.07542 | 16130 ft | 384 kts | 40° |
| 2026-05-07 10:24 | 50.85358 | -1.04851 | 15674 ft | 381 kts | 40° |
| 2026-05-07 10:25 | 50.87380 | -1.02192 | 15213 ft | 378 kts | 40° |
| 2026-05-07 10:25 | 50.89393 | -0.99541 | 14743 ft | 376 kts | 40° |
| 2026-05-07 10:25 | 50.91420 | -0.96869 | 14267 ft | 374 kts | 40° |
| 2026-05-07 10:25 | 50.93395 | -0.94263 | 13819 ft | 371 kts | 40° |
| 2026-05-07 10:26 | 50.95361 | -0.91664 | 13383 ft | 368 kts | 40° |
| 2026-05-07 10:26 | 50.97323 | -0.89068 | 12961 ft | 364 kts | 40° |
| 2026-05-07 10:26 | 50.99226 | -0.86548 | 12834 ft | 352 kts | 40° |
| 2026-05-07 10:26 | 51.01080 | -0.84092 | 12793 ft | 338 kts | 40° |
| 2026-05-07 10:27 | 51.02835 | -0.81762 | 12783 ft | 324 kts | 40° |
| 2026-05-07 10:27 | 51.04533 | -0.79507 | 12703 ft | 310 kts | 40° |
| 2026-05-07 10:27 | 51.06141 | -0.77369 | 12450 ft | 298 kts | 40° |
| 2026-05-07 10:27 | 51.07722 | -0.75264 | 12134 ft | 291 kts | 40° |
| 2026-05-07 10:28 | 51.09251 | -0.73228 | 11816 ft | 287 kts | 40° |
| 2026-05-07 10:28 | 51.10768 | -0.71205 | 11490 ft | 284 kts | 40° |
| 2026-05-07 10:28 | 51.12278 | -0.69190 | 11160 ft | 282 kts | 40° |
| 2026-05-07 10:28 | 51.13767 | -0.67200 | 10839 ft | 280 kts | 40° |
| 2026-05-07 10:29 | 51.15241 | -0.65229 | 10537 ft | 279 kts | 40° |
| 2026-05-07 10:29 | 51.16739 | -0.63224 | 10190 ft | 282 kts | 40° |
| 2026-05-07 10:29 | 51.18243 | -0.61211 | 9836 ft | 283 kts | 40° |
| 2026-05-07 10:30 | 51.21249 | -0.57178 | 9130 ft | 284 kts | 40° |
| 2026-05-07 10:30 | 51.22766 | -0.55140 | 8778 ft | 285 kts | 40° |
| 2026-05-07 10:30 | 51.24287 | -0.53095 | 8425 ft | 285 kts | 40° |
| 2026-05-07 10:30 | 51.25821 | -0.51104 | 8062 ft | 285 kts | 32° |
| 2026-05-07 10:31 | 51.27644 | -0.50003 | 7691 ft | 284 kts | 5° |
| 2026-05-07 10:31 | 51.29587 | -0.50314 | 7316 ft | 282 kts | 339° |
| 2026-05-07 10:31 | 51.31216 | -0.51987 | 7002 ft | 277 kts | 311° |
| 2026-05-07 10:31 | 51.32113 | -0.54567 | 6962 ft | 262 kts | 283° |
| 2026-05-07 10:32 | 51.32395 | -0.57384 | 6978 ft | 252 kts | 276° |
| 2026-05-07 10:32 | 51.32586 | -0.60150 | 6869 ft | 251 kts | 276° |
| 2026-05-07 10:32 | 51.32769 | -0.62940 | 6602 ft | 252 kts | 276° |
| 2026-05-07 10:32 | 51.32942 | -0.65715 | 6326 ft | 251 kts | 276° |
| 2026-05-07 10:33 | 51.33107 | -0.68463 | 6053 ft | 250 kts | 276° |
| 2026-05-07 10:33 | 51.33268 | -0.71248 | 5773 ft | 249 kts | 276° |
| 2026-05-07 10:33 | 51.33424 | -0.73976 | 5500 ft | 248 kts | 276° |
| 2026-05-07 10:33 | 51.33581 | -0.76737 | 5222 ft | 247 kts | 276° |
| 2026-05-07 10:34 | 51.33739 | -0.79469 | 4949 ft | 246 kts | 276° |
| 2026-05-07 10:34 | 51.34068 | -0.82148 | 4654 ft | 244 kts | 295° |
| 2026-05-07 10:34 | 51.35114 | -0.84239 | 4354 ft | 241 kts | 327° |
| 2026-05-07 10:34 | 51.36637 | -0.85139 | 4063 ft | 237 kts | 355° |
| 2026-05-07 10:35 | 51.38282 | -0.85216 | 3795 ft | 236 kts | 0° |
| 2026-05-07 10:35 | 51.39925 | -0.85208 | 3515 ft | 236 kts | 1° |
| 2026-05-07 10:35 | 51.41575 | -0.85199 | 3241 ft | 235 kts | 1° |
| 2026-05-07 10:35 | 51.43208 | -0.85192 | 3006 ft | 233 kts | 1° |
| 2026-05-07 10:36 | 51.44828 | -0.85189 | 2774 ft | 231 kts | 1° |
| 2026-05-07 10:36 | 51.46430 | -0.85181 | 2547 ft | 229 kts | 3° |
| 2026-05-07 10:36 | 51.47946 | -0.84790 | 2465 ft | 216 kts | 25° |
| 2026-05-07 10:36 | 51.49075 | -0.83347 | 2465 ft | 204 kts | 57° |
| 2026-05-07 10:37 | 51.49816 | -0.81404 | 2483 ft | 205 kts | 59° |
| 2026-05-07 10:37 | 51.50310 | -0.79334 | 2474 ft | 202 kts | 87° |
| 2026-05-07 10:37 | 51.50101 | -0.77090 | 2478 ft | 204 kts | 109° |
| 2026-05-07 10:37 | 51.49459 | -0.75094 | 2481 ft | 201 kts | 120° |
| 2026-05-07 10:38 | 51.48760 | -0.73256 | 2474 ft | 184 kts | 121° |
| 2026-05-07 10:38 | 51.48126 | -0.71583 | 2473 ft | 167 kts | 116° |
| 2026-05-07 10:38 | 51.47979 | -0.69802 | 2472 ft | 165 kts | 74° |
| 2026-05-07 10:38 | 51.48513 | -0.68197 | 2485 ft | 163 kts | 66° |
| 2026-05-07 10:39 | 51.48594 | -0.66437 | 2476 ft | 161 kts | 110° |
| 2026-05-07 10:39 | 51.48078 | -0.64934 | 2488 ft | 151 kts | 120° |
| 2026-05-07 10:39 | 51.47659 | -0.63383 | 2318 ft | 151 kts | 101° |
| 2026-05-07 10:39 | 51.47647 | -0.61706 | 1986 ft | 150 kts | 87° |
| 2026-05-07 10:40 | 51.47690 | -0.60069 | 1635 ft | 147 kts | 89° |
| 2026-05-07 10:40 | 51.47709 | -0.58441 | 1213 ft | 147 kts | 89° |
| 2026-05-07 10:40 | 51.47725 | -0.56865 | 1013 ft | 141 kts | 89° |
| 2026-05-07 10:40 | 51.47742 | -0.55271 | 909 ft | 145 kts | 90° |
| 2026-05-07 10:41 | 51.47744 | -0.53619 | 740 ft | 146 kts | 90° |
| 2026-05-07 10:41 | 51.47744 | -0.51997 | 531 ft | 145 kts | 91° |
| 2026-05-07 10:41 | 51.47745 | -0.50379 | 328 ft | 143 kts | 90° |
| 2026-05-07 10:41 | 51.47750 | -0.48775 | 164 ft | 145 kts | 90° |
| 2026-05-07 10:42 | 51.47757 | -0.47214 | 100 ft | 128 kts | 90° |
| 2026-05-07 10:42 | 51.47757 | -0.45998 | 98 ft | 87 kts | 89° |
| 2026-05-07 10:42 | 51.47760 | -0.45271 | 98 ft | 43 kts | 89° |
| 2026-05-07 10:42 | 51.47753 | -0.44932 | 98 ft | 23 kts | 109° |
| 2026-05-07 10:43 | 51.47690 | -0.44833 | 98 ft | 8 kts | 146° |
| 2026-05-07 10:43 | 51.47652 | -0.44794 | 98 ft | 4 kts | 150° |
| 2026-05-07 10:43 | 51.47619 | -0.44789 | 98 ft | 5 kts | 206° |
| 2026-05-07 10:43 | 51.47601 | -0.44846 | 98 ft | 6 kts | 260° |
| 2026-05-07 10:44 | 51.47597 | -0.44929 | 98 ft | 8 kts | 269° |
| 2026-05-07 10:44 | 51.47597 | -0.45028 | 98 ft | 9 kts | 269° |
| 2026-05-07 10:44 | 51.47597 | -0.45140 | 98 ft | 10 kts | 269° |
| 2026-05-07 10:44 | 51.47597 | -0.45268 | 98 ft | 12 kts | 269° |
| 2026-05-07 10:45 | 51.47596 | -0.45427 | 98 ft | 15 kts | 269° |
| 2026-05-07 10:45 | 51.47595 | -0.45618 | 98 ft | 18 kts | 269° |
| 2026-05-07 10:45 | 51.47595 | -0.45832 | 98 ft | 20 kts | 269° |
| 2026-05-07 10:45 | 51.47594 | -0.46067 | 98 ft | 22 kts | 269° |
| 2026-05-07 10:46 | 51.47592 | -0.46322 | 98 ft | 23 kts | 269° |
| 2026-05-07 10:46 | 51.47591 | -0.46595 | 98 ft | 25 kts | 270° |
| 2026-05-07 10:46 | 51.47584 | -0.46872 | 98 ft | 23 kts | 264° |
| 2026-05-07 10:46 | 51.47582 | -0.47131 | 98 ft | 22 kts | 269° |
| 2026-05-07 10:47 | 51.47580 | -0.47383 | 98 ft | 22 kts | 269° |
| 2026-05-07 10:47 | 51.47580 | -0.47631 | 98 ft | 22 kts | 269° |
| 2026-05-07 10:47 | 51.47575 | -0.47842 | 98 ft | 10 kts | 242° |
| 2026-05-07 10:47 | 51.47503 | -0.47874 | 98 ft | 11 kts | 179° |
| 2026-05-07 10:48 | 51.47420 | -0.47874 | 98 ft | 12 kts | 179° |
| 2026-05-07 10:48 | 51.47332 | -0.47874 | 98 ft | 12 kts | 179° |
| 2026-05-07 10:48 | 51.47247 | -0.47873 | 98 ft | 8 kts | 179° |
| 2026-05-07 10:48 | 51.47213 | -0.47911 | 98 ft | 6 kts | 269° |
| 2026-05-07 10:49 | 51.47213 | -0.47986 | 98 ft | 4 kts | 269° |
| 2026-05-07 10:49 | 51.47213 | -0.48019 | 98 ft | 0 kts | 269° |